< < Back
Terminal Aerodrome Forecast


Current Version              Previous Versions:   1  2  3  4  5  6  7  8  9  

Terminal Aerodrome Forecast

494
FTUS44 KHUN 271120
TAFHSV
TAF
KHSV 271120Z 2712/2812 29004KT P6SM FEW040
     FM271400 33010KT P6SM FEW040
     FM280000 36005KT P6SM SCT025=



Latest METAR

178
SAUS80 KWBC 271400 RRB
MTRHSV
METAR KHSV 271353Z 29004KT 10SM FEW060 02/M01 A2999 RMK AO2 SLP156
T00221006


USA.gov is the U.S. government's official web portal to all federal, state and local government web resources and services.